ΕΜΥ, Εθνική Μετεωρολογική Υπηρεσία - Δελτία Καιρού, Προγνώσεις

ΑΕΡΟΝΑΥΤΙΛΙΑ

GREEK AIRPORTS CODES

LGIK 212030Z AUTO 23008KT 180V280 //// // ////// 13/07 Q1015 RE//=

EUROPEAN AIRPORTS CODES

LFPO 212030Z 27002KT 9999 FEW033 02/00 Q1037 NOSIG=